KTIK/TIK METAR and TAF weather

Enter ICAO airport designator
Station Type Date Time Source
KTIK METAR 2020/11/28 18:56 UTC NOAA

KTIK 281856Z AUTO 03003KT 10SM CLR 09/00 A3020 RMK AO2 SLP238 T00850000


Station Type Date Time Source
KTIK Decoded METAR 2020/11/28 18:56 UTC NOAA

Tinker Air Force Base, OK, United States (KTIK) 35-25N 097-23W 397M
Nov 28, 2020 - 01:56 PM EST / 2020.11.28 1856 UTC
Wind: from the NNE (030 degrees) at 3 MPH (3 KT):0
Visibility: 10 mile(s):0
Sky conditions: clear
Temperature: 47.3 F (8.5 C)
Dew Point: 32.0 F (0.0 C)
Relative Humidity: 55%
Pressure (altimeter): 30.2 in. Hg (1022 hPa)
ob: KTIK 281856Z AUTO 03003KT 10SM CLR 09/00 A3020 RMK AO2 SLP238 T00850000
cycle: 19

Station Type Date Time Source
KTIK TAF 2020/11/28 18:26 UTC NOAA

TAF KTIK 281800Z 2818/2924 03009KT 9999 FEW080 BKN150 QNH3014INS
BECMG 2901/2902 36009KT 9000 -SHRA BKN060 QNH3011INS
BECMG 2903/2904 34009KT 6000 -SHRA BR BKN015 QNH3008INS
BECMG 2907/2908 34009KT 4800 -SHRA BR OVC007 620307 QNH3007INS
TEMPO 2908/2915 3200 SHRA OVC005
BECMG 2914/2915 33012G18KT 9999 NSW OVC010 QNH3015INS
BECMG 2921/2922 34015G25KT 9999 SCT050 SCT100 QNH3022INS TX11/2821Z TN05/2912Z

Example: see airport list